Statia Express — V7TT3 — position and weather

sailwx.info

Track history (hours):
 
Tides and Currents Weather Stations Pressure Air Temp Water Temp Dewpoint Dewpoint Depression Visibility Wind Speed Wind Dir Waves Ship Positions

Statia Express

Last reported at 2015-Jun-15 21:31 UTC. Time now 2015-Jun-30 19:45 UTC.
Position N 17°41' W 063°03'.
Warning: this ship's position is 14 days out of date.

Length 28 m; draft 4.1 m.

Type: Tug. MMSI: 538003879.

Date/timePositionNaut miles runAvg speedWind from/ knotsBaromVisibWave heightAir tempDewpointWater temp
2015-Jun-15 21:31N 17°41' W 063°03'9 9.1
2015-Jun-15 20:33N 17°50' W 063°05'10 9.7
2015-Jun-15 19:33N 17°60' W 063°04'2 0.2
2015-Jun-15 11:30N 18°01' W 063°03'0 0.2
2015-Jun-15 09:33N 18°00' W 063°03'0 0.3
2015-Jun-15 08:30N 18°01' W 063°03'0 0.0
2015-Jun-15 07:31N 18°01' W 063°03'0 0.0
2015-Jun-15 06:31N 18°01' W 063°03'0 0.0
2015-Jun-15 05:31N 18°01' W 063°03'0 0.0
2015-Jun-15 04:33N 18°01' W 063°03'0 0.0
2015-Jun-15 03:32N 18°01' W 063°03'0 0.4
2015-Jun-15 02:27N 18°01' W 063°03'0 0.0
2015-Jun-15 01:26N 18°01' W 063°03'0 0.0
2015-Jun-15 00:30N 18°01' W 063°03'0 0.0
2015-Jun-14 23:32N 18°01' W 063°03'0 0.0
2015-Jun-14 22:25N 18°01' W 063°03'0 0.0
2015-Jun-14 21:14N 18°01' W 063°03'0 0.0
2015-Jun-14 20:33N 18°01' W 063°03'0 0.4
2015-Jun-14 19:30N 18°01' W 063°03'0 0.2
2015-Jun-14 17:27N 18°01' W 063°03'0 0.0
2015-Jun-14 14:20N 18°01' W 063°03'0 0.6
2015-Jun-14 13:29N 18°01' W 063°03'0 0.4
2015-Jun-14 12:18N 18°01' W 063°03'1 0.7
2015-Jun-14 11:33N 18°00' W 063°04'2 1.7
2015-Jun-14 10:33N 17°60' W 063°05'3 3.5
2015-Jun-14 09:32N 17°56' W 063°05'5 5.0
2015-Jun-14 08:34N 17°51' W 063°05'5 4.9
2015-Jun-14 07:33N 17°47' W 063°04'  
2015-Jun-10 01:32N 17°40' W 063°03'5 5.1
2015-Jun-10 00:33N 17°45' W 063°04'5 5.2
2015-Jun-09 23:32N 17°50' W 063°05'5 5.4
2015-Jun-09 22:33N 17°56' W 063°05'5 4.5
2015-Jun-09 21:33N 18°00' W 063°05'  
2015-Jun-06 17:33N 18°01' W 063°05'1 0.2
2015-Jun-06 10:20N 18°01' W 063°03'  
Track history (hours):
 
Tides and Currents Weather Stations Pressure Air Temp Water Temp Dewpoint Dewpoint Depression Visibility Wind Speed Wind Dir Waves Ship Positions

Statia Express

Last reported at 2015-Jun-15 21:31 UTC. Time now 2015-Jun-30 19:45 UTC.
Position N 17°41' W 063°03'.
Warning: this ship's position is 14 days out of date.

Length 28 m; draft 4.1 m.

Type: Tug. MMSI: 538003879.

Date/timePositionNaut miles runAvg speedWind from/ knotsBaromVisibWave heightAir tempDewpointWater temp
2015-Jun-15 21:31N 17°41' W 063°03'9 9.1
2015-Jun-15 20:33N 17°50' W 063°05'10 9.7
2015-Jun-15 19:33N 17°60' W 063°04'2 0.2
2015-Jun-15 11:30N 18°01' W 063°03'0 0.2
2015-Jun-15 09:33N 18°00' W 063°03'0 0.3
2015-Jun-15 08:30N 18°01' W 063°03'0 0.0
2015-Jun-15 07:31N 18°01' W 063°03'0 0.0
2015-Jun-15 06:31N 18°01' W 063°03'0 0.0
2015-Jun-15 05:31N 18°01' W 063°03'0 0.0
2015-Jun-15 04:33N 18°01' W 063°03'0 0.0
2015-Jun-15 03:32N 18°01' W 063°03'0 0.4
2015-Jun-15 02:27N 18°01' W 063°03'0 0.0
2015-Jun-15 01:26N 18°01' W 063°03'0 0.0
2015-Jun-15 00:30N 18°01' W 063°03'0 0.0
2015-Jun-14 23:32N 18°01' W 063°03'0 0.0
2015-Jun-14 22:25N 18°01' W 063°03'0 0.0
2015-Jun-14 21:14N 18°01' W 063°03'0 0.0
2015-Jun-14 20:33N 18°01' W 063°03'0 0.4
2015-Jun-14 19:30N 18°01' W 063°03'0 0.2
2015-Jun-14 17:27N 18°01' W 063°03'0 0.0
2015-Jun-14 14:20N 18°01' W 063°03'0 0.6
2015-Jun-14 13:29N 18°01' W 063°03'0 0.4
2015-Jun-14 12:18N 18°01' W 063°03'1 0.7
2015-Jun-14 11:33N 18°00' W 063°04'2 1.7
2015-Jun-14 10:33N 17°60' W 063°05'3 3.5
2015-Jun-14 09:32N 17°56' W 063°05'5 5.0
2015-Jun-14 08:34N 17°51' W 063°05'5 4.9
2015-Jun-14 07:33N 17°47' W 063°04'  
2015-Jun-10 01:32N 17°40' W 063°03'5 5.1
2015-Jun-10 00:33N 17°45' W 063°04'5 5.2
2015-Jun-09 23:32N 17°50' W 063°05'5 5.4
2015-Jun-09 22:33N 17°56' W 063°05'5 4.5
2015-Jun-09 21:33N 18°00' W 063°05'  
2015-Jun-06 17:33N 18°01' W 063°05'1 0.2
2015-Jun-06 10:20N 18°01' W 063°03'  

Dump ship's entire track history